CheckWX is a tool to help pilots better visualize weather data.  It is not intended as a substitute for an official pre-flight weather briefing.

10:38:08 UTC

LESA TAF
Salamanca Airport
Salamanca, Spain
TAF LESA 260500Z 2606/2706 VRB05KT CAVOK TX30/2616Z TN15/2606Z BECMG 2608/2610 22012KT BECMG 2619/2621 VRB05KT

Jun-26@
06:00 UTC

Jun-26 @ 06:00 UTC

Jun-26@
08:00 UTC

Jun-26 @ 08:00 UTC

TAF LESA 260500Z 2606/2706 VRB05KT CAVOK TX30/2616Z TN15/2606Z

Expired

Wind
  • Variable at 5 KTS
Cloud Levels
  • No significant clouds

Jun-26@
08:00 UTC

Jun-26 @ 08:00 UTC

Jun-26@
19:00 UTC

Jun-26 @ 19:00 UTC

BECMG 2608/2610 22012KT

Becoming

Becoming Conditions expected by Wed, Jun 26, 2019 @ 10:00 UTC

Wind
  • 220° at 12 KTS
Cloud Levels
  • No significant clouds

Jun-26@
19:00 UTC

Jun-26 @ 19:00 UTC

Jun-27@
06:00 UTC

Jun-27 @ 06:00 UTC

BECMG 2619/2621 VRB05KT

Becoming

Becoming Conditions expected by Wed, Jun 26, 2019 @ 21:00 UTC

Wind
  • Variable at 5 KTS
Cloud Levels
  • No significant clouds